Foligno, Italy

11:48 PM CEST on June 02, 2015 (GMT +0200)
Periferia ovest Sant'Eraclio | | Change Station
CLOSE
Current Station
Personal Weather Station
Location: Foligno, UMBRIA
Elevation: 728 ft
Nearby Weather Stations

Elev 728 ft 42.93 °N, 12.72 °E | Updated 9 minutes ago

Clear
Clear
70.0 °F
Feels Like 70.0 °F
N
0.0
Wind Variable Wind from NW

Today
High -- | Low -- °F
--% Chance of Precip.
Yesterday
High -- | Low -- °F
Precip. -- in
5:32 AM 8:41 PM
Full, 100% visible
Pressure 30.15 in
Visibility -9999.0 miles
Clouds
Dew Point 55 °F
Humidity 60%
Rainfall 0.00 in
Snow Depth Not available.
UV Not available.
Pollen Not available.
Air Quality Not available.
Flu Activity Not available.
METAR LIVF 022055Z 21004KT CAVOK 20/14 Q1021 RMK SKC MON LIB VAL NIL VIS MIN 9999

More Conditions Fewer Conditions

Pressure 30.15 in
Visibility -9999.0 miles
Clouds
Dew Point 55 °F
Humidity 60%
Rainfall 0.00 in
Snow Depth Not available.
UV Not available.
Pollen Not available.
Air Quality Not available.
Flu Activity Not available.
METAR LIVF 022055Z 21004KT CAVOK 20/14 Q1021 RMK SKC MON LIB VAL NIL VIS MIN 9999

More Conditions Fewer Conditions

10-Day Weather Forecast

×

Almanac

Astronomy

Jun. 02, 2015 Rise Set
Actual Time
Civil Twilight
Nautical Twilight
Astronomical Twilight
Moon
Length of Visible Light
Length of Day
Tomorrow will be .
, % of the Moon is Illuminated

Today's Extremes

Country Highs Country Lows

Community

WunderPhotos

Upload Photos

1,826,032 photos uploaded!

WunderBlogs® & News

Nearby

Air Quality

  Air Quality AQ Index Pollutant
Not available.

Snow Depth

Station Depth Elevation

Earthquake Activity

City Distance Mag. Time & Date
Minimum magnitude displayed is 2.5.

Coastal Water Temperatures

Place Temperature

Stations

Nearby Weather Stations

Station Location Temp. Windchill Dew Point Humidity Wind Precip. Elev Updated Type